Time;durP1;ratioP1;P1;durP2;ratioP2;P2;SDS_P1;SDS_P2;PMS_P1;PMS_P2;Temp;Humidity;BMP_temperature;BMP_pressure;BME280_temperature;BME280_humidity;BME280_pressure;Samples;Min_cycle;Max_cycle;Signal;HPM_P1;HPM_P2
2023/03/06 00:01:00;;;;;;;4.15;3.60;;;;;;;;;;5042163;28;20048;-66
2023/03/06 00:03:26;;;;;;;4.50;3.70;;;;;;;;;;5053433;28;20032;-65
2023/03/06 00:05:54;;;;;;;4.43;3.45;;;;;;;;;;5045928;28;20481;-62
2023/03/06 00:08:19;;;;;;;4.38;3.55;;;;;;;;;;5045959;28;20039;-65
2023/03/06 00:10:44;;;;;;;6.20;4.00;;;;;;;;;;5062228;28;20041;-64
2023/03/06 00:13:11;;;;;;;4.63;3.50;;;;;;;;;;5046806;28;20528;-63
2023/03/06 00:15:36;;;;;;;5.20;3.47;;;;;;;;;;5072488;28;20037;-65
2023/03/06 00:18:02;;;;;;;3.90;3.43;;;;;;;;;;5070748;28;20672;-67
2023/03/06 00:20:27;;;;;;;4.43;3.42;;;;;;;;;;5044799;28;20392;-66
2023/03/06 00:22:54;;;;;;;5.70;3.87;;;;;;;;;;5044596;28;20536;-64
2023/03/06 00:25:19;;;;;;;5.00;3.60;;;;;;;;;;5068196;28;20112;-66
2023/03/06 00:27:45;;;;;;;4.32;3.90;;;;;;;;;;5067897;28;20123;-64
2023/03/06 00:30:11;;;;;;;4.63;3.53;;;;;;;;;;5066088;28;20492;-66
2023/03/06 00:32:36;;;;;;;4.75;3.65;;;;;;;;;;5062862;28;20290;-65
2023/03/06 00:35:02;;;;;;;4.97;3.73;;;;;;;;;;5066980;28;20400;-66
2023/03/06 00:37:27;;;;;;;4.70;3.88;;;;;;;;;;5067655;28;20400;-65
2023/03/06 00:39:52;;;;;;;5.80;3.90;;;;;;;;;;5067235;28;20055;-64
2023/03/06 00:42:18;;;;;;;4.97;3.40;;;;;;;;;;5049291;28;20281;-63
2023/03/06 00:44:43;;;;;;;4.60;3.53;;;;;;;;;;5066449;28;20318;-65
2023/03/06 00:47:08;;;;;;;4.37;3.50;;;;;;;;;;5069271;28;20041;-65
2023/03/06 00:49:33;;;;;;;4.23;3.60;;;;;;;;;;5070182;28;20283;-61
2023/03/06 00:51:59;;;;;;;4.15;3.45;;;;;;;;;;5068683;28;20786;-65
2023/03/06 00:54:24;;;;;;;4.50;3.57;;;;;;;;;;5059607;28;20075;-66
2023/03/06 00:56:49;;;;;;;4.00;3.53;;;;;;;;;;5057960;28;20025;-65
2023/03/06 00:59:14;;;;;;;3.75;3.15;;;;;;;;;;5066451;28;20279;-65
2023/03/06 01:01:40;;;;;;;4.55;3.63;;;;;;;;;;5042190;28;20115;-65
2023/03/06 01:04:05;;;;;;;4.50;3.57;;;;;;;;;;5066150;28;20504;-65
2023/03/06 01:06:30;;;;;;;4.40;3.60;;;;;;;;;;5053357;28;20963;-65
2023/03/06 01:08:55;;;;;;;4.60;3.57;;;;;;;;;;5066377;28;20472;-65
2023/03/06 01:11:20;;;;;;;4.03;3.43;;;;;;;;;;5066601;28;20530;-66
2023/03/06 01:13:46;;;;;;;5.05;3.85;;;;;;;;;;5066855;28;20654;-65
2023/03/06 01:16:12;;;;;;;5.03;3.57;;;;;;;;;;5058965;28;20033;-64
2023/03/06 01:18:37;;;;;;;4.93;3.58;;;;;;;;;;5066944;28;20655;-66
2023/03/06 01:21:02;;;;;;;4.55;3.65;;;;;;;;;;5066899;28;20036;-66
2023/03/06 01:23:28;;;;;;;3.95;3.33;;;;;;;;;;5049028;28;20044;-66
2023/03/06 01:25:53;;;;;;;5.23;3.63;;;;;;;;;;5061513;28;20036;-65
2023/03/06 01:28:18;;;;;;;4.57;3.83;;;;;;;;;;5066459;28;20040;-66
2023/03/06 01:30:43;;;;;;;4.87;3.80;;;;;;;;;;5063209;28;20493;-64
2023/03/06 01:33:09;;;;;;;4.20;3.63;;;;;;;;;;5066574;28;20630;-64
2023/03/06 01:35:34;;;;;;;4.40;3.60;;;;;;;;;;5066957;28;20271;-63
2023/03/06 01:37:59;;;;;;;4.97;3.70;;;;;;;;;;5063235;28;20283;-66
2023/03/06 01:40:24;;;;;;;4.43;3.28;;;;;;;;;;5066196;28;20359;-67
2023/03/06 01:42:49;;;;;;;4.43;3.78;;;;;;;;;;5046823;28;20083;-62
2023/03/06 01:45:15;;;;;;;4.80;3.60;;;;;;;;;;5059671;28;20033;-63
2023/03/06 01:47:40;;;;;;;4.70;3.57;;;;;;;;;;5066412;28;20295;-66
2023/03/06 01:50:06;;;;;;;4.77;3.67;;;;;;;;;;5066358;28;20040;-64
2023/03/06 01:52:35;;;;;;;4.85;3.50;;;;;;;;;;5066873;28;20777;-65
2023/03/06 01:55:10;;;;;;;3.93;3.53;;;;;;;;;;5074110;23;20064;-69
2023/03/06 01:57:37;;;;;;;4.47;3.67;;;;;;;;;;5049713;28;20037;-65
2023/03/06 02:00:12;;;;;;;3.70;3.30;;;;;;;;;;5066676;28;20123;-69
2023/03/06 02:02:38;;;;;;;4.20;3.47;;;;;;;;;;5066521;28;20075;-69
2023/03/06 02:05:03;;;;;;;4.15;3.22;;;;;;;;;;5063109;28;20078;-70
2023/03/06 02:07:29;;;;;;;4.55;3.47;;;;;;;;;;5041368;28;20110;-68
2023/03/06 02:09:54;;;;;;;4.85;3.80;;;;;;;;;;5040613;28;20037;-67
2023/03/06 02:12:19;;;;;;;4.33;3.50;;;;;;;;;;5072474;23;20051;-70
2023/03/06 02:14:45;;;;;;;5.78;3.90;;;;;;;;;;5036686;28;20283;-69
2023/03/06 02:17:11;;;;;;;4.53;3.50;;;;;;;;;;5037386;28;20427;-67
2023/03/06 02:19:36;;;;;;;4.05;3.40;;;;;;;;;;5035118;28;20513;-66
2023/03/06 02:22:01;;;;;;;4.00;3.13;;;;;;;;;;5056464;28;20648;-68
2023/03/06 02:24:29;;;;;;;4.80;3.72;;;;;;;;;;5065433;28;20535;-68
2023/03/06 02:26:54;;;;;;;5.63;3.40;;;;;;;;;;5048276;28;20016;-70
2023/03/06 02:29:21;;;;;;;4.07;3.40;;;;;;;;;;5035179;28;20561;-65
2023/03/06 02:31:46;;;;;;;4.57;3.47;;;;;;;;;;5062059;28;20291;-65
2023/03/06 02:34:14;;;;;;;4.85;3.80;;;;;;;;;;5051788;28;20037;-69
2023/03/06 02:36:41;;;;;;;4.85;3.53;;;;;;;;;;5063817;28;20591;-65
2023/03/06 02:39:06;;;;;;;3.92;3.50;;;;;;;;;;5064446;28;20036;-70
2023/03/06 02:41:31;;;;;;;4.00;3.47;;;;;;;;;;5046363;28;20135;-70
2023/03/06 02:43:57;;;;;;;4.20;3.80;;;;;;;;;;5020823;28;20286;-69
2023/03/06 02:46:22;;;;;;;4.10;3.40;;;;;;;;;;5059172;28;20332;-67
2023/03/06 02:48:47;;;;;;;4.97;3.60;;;;;;;;;;5064460;28;20277;-67
2023/03/06 02:51:12;;;;;;;4.65;3.55;;;;;;;;;;5045068;28;20333;-68
2023/03/06 02:53:37;;;;;;;4.40;3.50;;;;;;;;;;5062900;28;20044;-67
2023/03/06 02:56:03;;;;;;;4.13;3.47;;;;;;;;;;5057379;28;20358;-70
2023/03/06 02:58:28;;;;;;;5.03;3.85;;;;;;;;;;5038340;28;20313;-70
2023/03/06 03:00:53;;;;;;;5.30;3.67;;;;;;;;;;5060715;28;20044;-68
2023/03/06 03:03:18;;;;;;;5.03;3.93;;;;;;;;;;5055383;28;20329;-67
2023/03/06 03:05:44;;;;;;;4.95;3.60;;;;;;;;;;5058728;28;20278;-67
2023/03/06 03:08:09;;;;;;;3.90;3.43;;;;;;;;;;5046923;28;20554;-68
2023/03/06 03:10:34;;;;;;;4.35;3.63;;;;;;;;;;5065301;28;20132;-69
2023/03/06 03:12:59;;;;;;;5.07;3.70;;;;;;;;;;5056565;28;20052;-67
2023/03/06 03:15:25;;;;;;;4.43;3.60;;;;;;;;;;5043937;28;20028;-66
2023/03/06 03:17:50;;;;;;;4.50;3.77;;;;;;;;;;5064622;28;20301;-65
2023/03/06 03:20:17;;;;;;;4.47;3.50;;;;;;;;;;5064483;28;20826;-68
2023/03/06 03:22:42;;;;;;;4.25;3.65;;;;;;;;;;5054392;28;20033;-69
2023/03/06 03:25:07;;;;;;;4.70;3.50;;;;;;;;;;5030731;28;20129;-68
2023/03/06 03:27:32;;;;;;;4.78;3.75;;;;;;;;;;5030401;28;20277;-70
2023/03/06 03:29:58;;;;;;;4.13;3.50;;;;;;;;;;5064586;28;20101;-64
2023/03/06 03:32:23;;;;;;;4.38;3.42;;;;;;;;;;5044902;28;20908;-68
2023/03/06 03:34:48;;;;;;;4.25;3.50;;;;;;;;;;5064148;28;20032;-68
2023/03/06 03:37:14;;;;;;;5.07;3.57;;;;;;;;;;5038016;28;20693;-69
2023/03/06 03:39:39;;;;;;;4.68;3.67;;;;;;;;;;5063621;28;20291;-67
2023/03/06 03:42:04;;;;;;;4.00;3.43;;;;;;;;;;5063932;28;20580;-66
2023/03/06 03:44:29;;;;;;;4.15;3.50;;;;;;;;;;5064306;28;20626;-69
2023/03/06 03:46:55;;;;;;;4.23;3.43;;;;;;;;;;5030086;28;21407;-67
2023/03/06 03:49:20;;;;;;;4.73;3.80;;;;;;;;;;5063620;28;20289;-65
2023/03/06 03:51:45;;;;;;;4.60;3.43;;;;;;;;;;5065396;28;20798;-70
2023/03/06 03:54:10;;;;;;;4.07;2.90;;;;;;;;;;5066100;28;20746;-68
2023/03/06 03:56:36;;;;;;;5.03;3.93;;;;;;;;;;5047125;28;20293;-67
2023/03/06 03:59:01;;;;;;;3.90;3.30;;;;;;;;;;5066532;28;20375;-66
2023/03/06 04:01:26;;;;;;;4.33;3.23;;;;;;;;;;5061600;28;20302;-68
2023/03/06 04:03:51;;;;;;;4.10;3.30;;;;;;;;;;5053844;28;20279;-68
2023/03/06 04:06:17;;;;;;;4.45;3.00;;;;;;;;;;5068421;28;20295;-70
2023/03/06 04:08:42;;;;;;;4.37;3.30;;;;;;;;;;5068332;28;20189;-67
2023/03/06 04:11:07;;;;;;;4.70;3.35;;;;;;;;;;5067337;28;20314;-67
2023/03/06 04:13:32;;;;;;;4.13;3.30;;;;;;;;;;5060287;28;20040;-68
2023/03/06 04:15:58;;;;;;;3.97;3.17;;;;;;;;;;5068601;28;20271;-69
2023/03/06 04:18:23;;;;;;;4.07;3.47;;;;;;;;;;5061415;28;20810;-69
2023/03/06 04:20:49;;;;;;;3.78;2.97;;;;;;;;;;5065672;28;20032;-69
2023/03/06 04:23:14;;;;;;;3.58;2.78;;;;;;;;;;5053573;28;20044;-66
2023/03/06 04:25:39;;;;;;;3.58;3.05;;;;;;;;;;5032445;28;20068;-65
2023/03/06 04:28:05;;;;;;;3.57;3.03;;;;;;;;;;5037958;28;20124;-64
2023/03/06 04:30:30;;;;;;;4.20;3.10;;;;;;;;;;5069091;28;20294;-67
2023/03/06 04:32:55;;;;;;;4.75;3.30;;;;;;;;;;5047118;28;20479;-66
2023/03/06 04:35:20;;;;;;;4.28;3.15;;;;;;;;;;5056798;28;20035;-68
2023/03/06 04:37:46;;;;;;;3.20;2.90;;;;;;;;;;5030941;28;20039;-65
2023/03/06 04:40:18;;;;;;;4.33;3.00;;;;;;;;;;5067196;28;20830;-68
2023/03/06 04:42:43;;;;;;;3.50;3.20;;;;;;;;;;5062159;28;20179;-67
2023/03/06 04:45:09;;;;;;;3.85;2.95;;;;;;;;;;5067357;28;20111;-70
2023/03/06 04:47:34;;;;;;;4.10;3.33;;;;;;;;;;5066734;28;20041;-64
2023/03/06 04:49:59;;;;;;;4.13;3.03;;;;;;;;;;5066407;28;20052;-68
2023/03/06 04:52:25;;;;;;;3.58;3.00;;;;;;;;;;5064299;28;20029;-65
2023/03/06 04:54:50;;;;;;;4.27;3.27;;;;;;;;;;5065012;28;20542;-64
2023/03/06 04:57:15;;;;;;;5.57;3.33;;;;;;;;;;5059774;28;20321;-66
2023/03/06 04:59:40;;;;;;;3.50;2.58;;;;;;;;;;5054983;28;20050;-71
2023/03/06 05:02:06;;;;;;;4.83;3.10;;;;;;;;;;5053151;28;20643;-65
2023/03/06 05:04:31;;;;;;;5.17;3.57;;;;;;;;;;5032428;28;20360;-66
2023/03/06 05:06:56;;;;;;;3.60;3.03;;;;;;;;;;5049852;28;20303;-66
2023/03/06 05:09:21;;;;;;;4.22;3.22;;;;;;;;;;5051941;28;20306;-70
2023/03/06 05:11:47;;;;;;;4.00;3.20;;;;;;;;;;5045646;28;20041;-66
2023/03/06 05:14:12;;;;;;;4.10;3.17;;;;;;;;;;5048700;28;20307;-68
2023/03/06 05:16:37;;;;;;;3.50;3.07;;;;;;;;;;5052378;28;21125;-66
2023/03/06 05:19:02;;;;;;;3.70;2.90;;;;;;;;;;5050375;28;21068;-67
2023/03/06 05:21:27;;;;;;;3.80;3.20;;;;;;;;;;5052409;28;20144;-66
2023/03/06 05:23:53;;;;;;;3.50;3.20;;;;;;;;;;5035809;28;20307;-66
2023/03/06 05:26:18;;;;;;;3.20;2.88;;;;;;;;;;5050105;28;20301;-66
2023/03/06 05:28:43;;;;;;;9.03;3.93;;;;;;;;;;5036976;28;20162;-65
2023/03/06 05:31:08;;;;;;;11.60;3.43;;;;;;;;;;5051011;28;20064;-69
2023/03/06 05:33:34;;;;;;;4.70;3.40;;;;;;;;;;5036376;28;20400;-67
2023/03/06 05:35:59;;;;;;;7.15;3.53;;;;;;;;;;5037666;28;20037;-69
2023/03/06 05:38:25;;;;;;;7.30;3.75;;;;;;;;;;5034919;28;21673;-66
2023/03/06 05:40:50;;;;;;;11.27;3.50;;;;;;;;;;5052077;28;20098;-67
2023/03/06 05:43:15;;;;;;;7.78;3.53;;;;;;;;;;5050449;28;20033;-66
2023/03/06 05:45:41;;;;;;;11.02;3.75;;;;;;;;;;5051691;28;20120;-66
2023/03/06 05:48:06;;;;;;;8.05;3.55;;;;;;;;;;5034310;28;20444;-68
2023/03/06 05:50:31;;;;;;;9.75;4.40;;;;;;;;;;5051907;28;20176;-71
2023/03/06 05:52:56;;;;;;;5.50;3.28;;;;;;;;;;5050665;28;20039;-68
2023/03/06 05:55:23;;;;;;;7.68;3.60;;;;;;;;;;5031615;28;20690;-66
2023/03/06 05:57:48;;;;;;;8.27;3.88;;;;;;;;;;5049623;28;20045;-67
2023/03/06 06:00:14;;;;;;;8.60;3.42;;;;;;;;;;5047937;28;20812;-70
2023/03/06 06:02:40;;;;;;;6.65;3.05;;;;;;;;;;5043523;28;20032;-69
2023/03/06 06:05:05;;;;;;;8.02;3.65;;;;;;;;;;5049272;28;20102;-64
2023/03/06 06:07:31;;;;;;;9.48;3.97;;;;;;;;;;5033390;28;20472;-70
2023/03/06 06:09:56;;;;;;;5.47;3.28;;;;;;;;;;5053352;28;20052;-66
2023/03/06 06:12:21;;;;;;;9.45;3.10;;;;;;;;;;5048348;28;20060;-66
2023/03/06 06:14:46;;;;;;;8.77;3.80;;;;;;;;;;5048582;28;20044;-71
2023/03/06 06:17:12;;;;;;;11.60;4.10;;;;;;;;;;5050696;28;20567;-74
2023/03/06 06:19:37;;;;;;;6.03;3.80;;;;;;;;;;5037990;28;20303;-68
2023/03/06 06:22:02;;;;;;;8.68;3.75;;;;;;;;;;5046141;28;20425;-66
2023/03/06 06:24:28;;;;;;;29.00;8.63;;;;;;;;;;5049484;28;20119;-71
2023/03/06 06:26:54;;;;;;;24.98;7.03;;;;;;;;;;5031312;28;20362;-68
2023/03/06 06:29:19;;;;;;;20.50;5.30;;;;;;;;;;5013659;28;20029;-70
2023/03/06 06:31:44;;;;;;;15.65;5.13;;;;;;;;;;5025702;28;20060;-70
2023/03/06 06:34:10;;;;;;;16.13;5.03;;;;;;;;;;5034640;28;20041;-68
2023/03/06 06:36:35;;;;;;;14.73;5.05;;;;;;;;;;5036799;28;20295;-66
2023/03/06 06:39:00;;;;;;;15.30;4.03;;;;;;;;;;5034646;28;20033;-70
2023/03/06 06:41:26;;;;;;;18.02;5.40;;;;;;;;;;5034083;28;20048;-69
2023/03/06 06:43:51;;;;;;;17.00;5.13;;;;;;;;;;5050395;28;20167;-66
2023/03/06 06:46:16;;;;;;;17.75;5.43;;;;;;;;;;5049638;28;20283;-65
2023/03/06 06:48:42;;;;;;;14.40;5.55;;;;;;;;;;5017983;28;20530;-67
2023/03/06 06:51:07;;;;;;;14.70;4.80;;;;;;;;;;5047949;28;20198;-65
2023/03/06 06:53:32;;;;;;;10.43;4.90;;;;;;;;;;5046114;28;20055;-68
2023/03/06 06:55:57;;;;;;;12.45;4.40;;;;;;;;;;5047748;28;20048;-65
2023/03/06 06:58:23;;;;;;;12.77;4.93;;;;;;;;;;5031647;28;20079;-67
2023/03/06 07:00:48;;;;;;;12.45;4.60;;;;;;;;;;5037121;28;20037;-69
2023/03/06 07:03:13;;;;;;;10.90;4.40;;;;;;;;;;5028277;28;20093;-68
2023/03/06 07:05:39;;;;;;;15.20;4.73;;;;;;;;;;5033954;28;20037;-65
2023/03/06 07:08:04;;;;;;;10.40;3.90;;;;;;;;;;5051098;28;21068;-68
2023/03/06 07:10:29;;;;;;;12.40;4.57;;;;;;;;;;5050020;28;20580;-65
2023/03/06 07:12:55;;;;;;;11.37;4.20;;;;;;;;;;5047795;28;20344;-66
2023/03/06 07:15:21;;;;;;;10.90;4.78;;;;;;;;;;5052868;28;20321;-66
2023/03/06 07:17:46;;;;;;;9.15;4.45;;;;;;;;;;5052421;28;20056;-66
2023/03/06 07:20:12;;;;;;;8.60;4.30;;;;;;;;;;5039674;28;21852;-64
2023/03/06 07:22:37;;;;;;;9.77;4.35;;;;;;;;;;5052128;28;20382;-67
2023/03/06 07:25:03;;;;;;;10.73;4.27;;;;;;;;;;5051393;28;20143;-66
2023/03/06 07:27:29;;;;;;;10.63;4.25;;;;;;;;;;5052255;28;20326;-65
2023/03/06 07:29:54;;;;;;;10.82;3.90;;;;;;;;;;5054977;28;20357;-65
2023/03/06 07:32:19;;;;;;;9.00;4.43;;;;;;;;;;5055068;28;20359;-66
2023/03/06 07:34:45;;;;;;;9.50;4.68;;;;;;;;;;5041681;28;20287;-66
2023/03/06 07:37:10;;;;;;;10.02;4.13;;;;;;;;;;5042459;28;20028;-66
2023/03/06 07:39:35;;;;;;;10.10;4.10;;;;;;;;;;5041387;28;20103;-68
2023/03/06 07:42:01;;;;;;;8.70;4.47;;;;;;;;;;5054180;28;20041;-67
2023/03/06 07:44:26;;;;;;;9.30;3.92;;;;;;;;;;5059681;28;20683;-66
2023/03/06 07:46:51;;;;;;;11.23;4.10;;;;;;;;;;5057087;28;20028;-66
2023/03/06 07:49:16;;;;;;;8.77;3.70;;;;;;;;;;5051477;28;20115;-66
2023/03/06 07:51:42;;;;;;;9.67;4.20;;;;;;;;;;5054536;28;20422;-65
2023/03/06 07:54:07;;;;;;;8.50;4.20;;;;;;;;;;5053413;28;20099;-65
2023/03/06 07:56:33;;;;;;;6.73;3.77;;;;;;;;;;5053228;28;20291;-66
2023/03/06 07:58:59;;;;;;;7.65;3.83;;;;;;;;;;5051579;28;20390;-68
2023/03/06 08:01:24;;;;;;;8.48;3.67;;;;;;;;;;5038207;28;20561;-67
2023/03/06 08:03:49;;;;;;;8.27;3.97;;;;;;;;;;5040511;28;20064;-66
2023/03/06 08:06:16;;;;;;;8.43;4.27;;;;;;;;;;5052671;28;20119;-64
2023/03/06 08:08:41;;;;;;;9.00;3.95;;;;;;;;;;5035842;28;20746;-66
2023/03/06 08:11:07;;;;;;;7.00;3.80;;;;;;;;;;5053615;28;20059;-67
2023/03/06 08:13:32;;;;;;;8.48;4.60;;;;;;;;;;5052930;28;20100;-65
2023/03/06 08:15:58;;;;;;;6.95;3.53;;;;;;;;;;5054338;28;20033;-65
2023/03/06 08:18:24;;;;;;;9.95;4.40;;;;;;;;;;5052779;28;20047;-65
2023/03/06 08:20:49;;;;;;;7.82;4.22;;;;;;;;;;5052198;28;20870;-65
2023/03/06 08:23:14;;;;;;;9.47;3.80;;;;;;;;;;5052589;28;20029;-67
2023/03/06 08:25:40;;;;;;;7.47;4.28;;;;;;;;;;5039359;28;20068;-65
2023/03/06 08:28:05;;;;;;;10.23;4.40;;;;;;;;;;5052924;28;20066;-64
2023/03/06 08:30:30;;;;;;;6.20;3.53;;;;;;;;;;5052669;28;20658;-65
2023/03/06 08:32:55;;;;;;;8.17;4.17;;;;;;;;;;5052581;28;20033;-65
2023/03/06 08:35:21;;;;;;;8.43;4.27;;;;;;;;;;5054235;28;20123;-64
2023/03/06 08:37:46;;;;;;;7.45;3.85;;;;;;;;;;5051607;28;20307;-66
2023/03/06 08:40:11;;;;;;;7.60;4.23;;;;;;;;;;5038838;28;20568;-65
2023/03/06 08:42:36;;;;;;;10.38;4.32;;;;;;;;;;5053933;28;20762;-65
2023/03/06 08:45:02;;;;;;;9.70;4.67;;;;;;;;;;5053807;28;20036;-65
2023/03/06 08:47:27;;;;;;;5.35;3.42;;;;;;;;;;5053746;28;20094;-65
2023/03/06 08:49:52;;;;;;;7.20;3.73;;;;;;;;;;5053039;28;20120;-66
2023/03/06 08:52:18;;;;;;;7.57;3.70;;;;;;;;;;5035564;28;20307;-65
2023/03/06 08:54:44;;;;;;;8.13;3.78;;;;;;;;;;5052537;28;20302;-64
2023/03/06 08:57:09;;;;;;;7.18;3.97;;;;;;;;;;5053427;28;20055;-66
2023/03/06 08:59:35;;;;;;;6.72;3.95;;;;;;;;;;5053359;28;20116;-67
2023/03/06 09:02:00;;;;;;;6.40;3.75;;;;;;;;;;5052383;28;20035;-67
2023/03/06 09:04:28;;;;;;;6.80;4.15;;;;;;;;;;5048646;28;20799;-65
2023/03/06 09:06:53;;;;;;;5.80;3.97;;;;;;;;;;5035135;28;20041;-67
2023/03/06 09:09:18;;;;;;;6.67;4.07;;;;;;;;;;5052395;28;20039;-65
2023/03/06 09:11:43;;;;;;;7.43;3.65;;;;;;;;;;5050639;28;20307;-67
2023/03/06 09:14:09;;;;;;;7.57;4.07;;;;;;;;;;5050888;28;20063;-66
2023/03/06 09:16:34;;;;;;;6.97;3.90;;;;;;;;;;5033771;28;20123;-65
2023/03/06 09:18:59;;;;;;;6.70;3.83;;;;;;;;;;5050546;28;20309;-65
2023/03/06 09:21:26;;;;;;;7.33;3.80;;;;;;;;;;5048551;28;20095;-65
2023/03/06 09:23:51;;;;;;;7.00;4.10;;;;;;;;;;5036152;28;20395;-68
2023/03/06 09:26:16;;;;;;;5.95;3.35;;;;;;;;;;5038206;28;20047;-66
2023/03/06 09:28:41;;;;;;;6.63;3.70;;;;;;;;;;5037427;28;20044;-66
2023/03/06 09:31:17;;;;;;;5.83;3.47;;;;;;;;;;5051221;28;20132;-65
2023/03/06 09:33:42;;;;;;;6.00;3.60;;;;;;;;;;5053407;28;20733;-67
2023/03/06 09:36:07;;;;;;;6.40;3.63;;;;;;;;;;5051400;28;20052;-65
2023/03/06 09:38:33;;;;;;;6.10;3.35;;;;;;;;;;5039984;28;20562;-67
2023/03/06 09:41:01;;;;;;;6.90;3.73;;;;;;;;;;5052425;28;20037;-65
2023/03/06 09:43:42;;;;;;;6.53;3.65;;;;;;;;;;5051360;28;20291;-66
2023/03/06 09:46:28;;;;;;;7.53;3.85;;;;;;;;;;5032510;28;20063;-64
2023/03/06 09:49:12;;;;;;;6.78;4.13;;;;;;;;;;5036625;28;20116;-63
2023/03/06 09:51:56;;;;;;;4.95;3.17;;;;;;;;;;5048242;28;20049;-64
2023/03/06 09:54:42;;;;;;;5.75;3.67;;;;;;;;;;5049048;28;20067;-64
2023/03/06 09:57:12;;;;;;;6.28;3.40;;;;;;;;;;5033119;28;20045;-64
2023/03/06 09:59:45;;;;;;;7.38;3.90;;;;;;;;;;5050664;28;20040;-65
2023/03/06 10:02:15;;;;;;;6.47;3.67;;;;;;;;;;5037808;28;20058;-64
2023/03/06 10:04:40;;;;;;;5.35;3.60;;;;;;;;;;5035183;28;20536;-64
2023/03/06 10:07:26;;;;;;;5.88;3.72;;;;;;;;;;5050562;28;20182;-63
2023/03/06 10:09:54;;;;;;;5.30;3.13;;;;;;;;;;5031525;28;20092;-64
2023/03/06 10:12:27;;;;;;;5.28;3.13;;;;;;;;;;5050452;28;20061;-66
2023/03/06 10:14:52;;;;;;;5.05;3.30;;;;;;;;;;5034751;28;20425;-65
2023/03/06 10:17:19;;;;;;;4.95;3.05;;;;;;;;;;5062844;28;20040;-65
2023/03/06 10:19:46;;;;;;;5.00;3.38;;;;;;;;;;5039834;28;20033;-64
2023/03/06 10:22:20;;;;;;;5.13;3.58;;;;;;;;;;5032555;28;20040;-66
2023/03/06 10:25:04;;;;;;;5.95;3.50;;;;;;;;;;5047737;28;20045;-67
2023/03/06 10:27:42;;;;;;;5.68;3.40;;;;;;;;;;5049461;28;20051;-65
2023/03/06 10:30:13;;;;;;;5.68;3.70;;;;;;;;;;5050089;28;20059;-63
2023/03/06 10:32:42;;;;;;;5.60;3.67;;;;;;;;;;5048399;28;20020;-65
2023/03/06 10:35:11;;;;;;;6.22;3.75;;;;;;;;;;5051866;28;20085;-64
2023/03/06 10:37:36;;;;;;;5.18;3.47;;;;;;;;;;5048709;28;20098;-65
2023/03/06 10:40:04;;;;;;;6.93;3.10;;;;;;;;;;5050880;28;20048;-66
2023/03/06 10:42:29;;;;;;;4.50;3.15;;;;;;;;;;5049901;28;20060;-64
2023/03/06 10:45:05;;;;;;;4.47;3.28;;;;;;;;;;5048111;28;20079;-65
2023/03/06 10:47:33;;;;;;;4.68;3.13;;;;;;;;;;5013695;28;20056;-63
2023/03/06 10:49:59;;;;;;;5.90;3.85;;;;;;;;;;5036657;28;20044;-64
2023/03/06 10:52:25;;;;;;;5.30;3.38;;;;;;;;;;5048541;28;20807;-64
2023/03/06 10:54:51;;;;;;;4.80;3.63;;;;;;;;;;5033560;28;20049;-64
2023/03/06 10:57:24;;;;;;;5.30;3.30;;;;;;;;;;5028137;28;20041;-66
2023/03/06 10:59:54;;;;;;;4.78;3.40;;;;;;;;;;5014770;28;20037;-64
2023/03/06 11:02:29;;;;;;;4.35;3.30;;;;;;;;;;5030081;28;20033;-64
2023/03/06 11:04:54;;;;;;;5.35;3.58;;;;;;;;;;5029904;28;20052;-63
2023/03/06 11:07:23;;;;;;;5.28;3.42;;;;;;;;;;5028500;28;20064;-64
2023/03/06 11:09:58;;;;;;;4.03;3.00;;;;;;;;;;5047912;28;20067;-64
2023/03/06 11:12:26;;;;;;;4.60;3.50;;;;;;;;;;5049166;28;20145;-64
2023/03/06 11:15:10;;;;;;;4.38;3.33;;;;;;;;;;5047711;28;20045;-64
2023/03/06 11:17:36;;;;;;;5.15;3.55;;;;;;;;;;5049939;28;20070;-65
2023/03/06 11:20:08;;;;;;;5.05;3.20;;;;;;;;;;5049895;28;20048;-64
2023/03/06 11:22:33;;;;;;;4.70;3.55;;;;;;;;;;5046532;28;20571;-66
2023/03/06 11:24:59;;;;;;;5.00;3.70;;;;;;;;;;5031159;28;20119;-65
2023/03/06 11:27:25;;;;;;;5.17;3.40;;;;;;;;;;5035754;28;20045;-65
2023/03/06 11:29:50;;;;;;;4.95;3.40;;;;;;;;;;5012989;28;20299;-64
2023/03/06 11:32:21;;;;;;;4.78;3.35;;;;;;;;;;5042916;28;20729;-63
2023/03/06 11:34:48;;;;;;;5.40;3.58;;;;;;;;;;5048291;28;20052;-64
2023/03/06 11:37:20;;;;;;;5.15;3.38;;;;;;;;;;5016356;28;20039;-64
2023/03/06 11:39:48;;;;;;;4.88;3.40;;;;;;;;;;5033230;28;20028;-64
2023/03/06 11:42:16;;;;;;;5.43;3.50;;;;;;;;;;5017587;28;20037;-64
2023/03/06 11:44:50;;;;;;;5.20;3.40;;;;;;;;;;5029646;28;20040;-63
2023/03/06 11:47:22;;;;;;;6.15;3.50;;;;;;;;;;5047177;28;20036;-64
2023/03/06 11:49:50;;;;;;;4.75;3.55;;;;;;;;;;5044922;28;20052;-64
2023/03/06 11:52:26;;;;;;;4.72;3.22;;;;;;;;;;5049048;28;20024;-64
2023/03/06 11:54:54;;;;;;;4.80;3.58;;;;;;;;;;5026717;28;20029;-63
2023/03/06 11:57:24;;;;;;;4.78;3.28;;;;;;;;;;5030872;28;20124;-65
2023/03/06 11:59:49;;;;;;;;;;;;;;;;;;5028103;28;20433;-64
2023/03/06 12:02:28;;;;;;;4.73;3.10;;;;;;;;;;5045647;28;19917;-65
2023/03/06 12:05:05;;;;;;;4.03;3.30;;;;;;;;;;5014830;28;20048;-65
2023/03/06 12:07:31;;;;;;;4.30;3.28;;;;;;;;;;5030466;28;20073;-64
2023/03/06 12:10:16;;;;;;;4.47;3.53;;;;;;;;;;5031778;28;20044;-64
2023/03/06 12:12:59;;;;;;;4.10;3.03;;;;;;;;;;5047117;28;20132;-65
2023/03/06 12:15:37;;;;;;;5.25;3.55;;;;;;;;;;5049650;28;20049;-64
2023/03/06 12:18:21;;;;;;;4.55;3.35;;;;;;;;;;5031960;28;20135;-64
2023/03/06 12:21:01;;;;;;;5.32;3.58;;;;;;;;;;5050455;28;20044;-66
2023/03/06 12:23:45;;;;;;;5.63;3.28;;;;;;;;;;5035877;28;20048;-66
2023/03/06 12:26:22;;;;;;;4.68;3.03;;;;;;;;;;5059396;28;20603;-65
2023/03/06 12:28:56;;;;;;;4.10;3.17;;;;;;;;;;5027960;28;20524;-67
2023/03/06 12:31:23;;;;;;;4.35;3.10;;;;;;;;;;5041752;28;20053;-65
2023/03/06 12:33:49;;;;;;;5.30;3.58;;;;;;;;;;5045316;28;20052;-64
2023/03/06 12:36:33;;;;;;;3.67;2.90;;;;;;;;;;5058414;28;20509;-64
2023/03/06 12:38:58;;;;;;;4.20;3.00;;;;;;;;;;5055036;28;20325;-66
2023/03/06 12:44:02;;;;;;;4.32;3.20;;;;;;;;;;5080591;23;20032;-62
2023/03/06 12:46:29;;;;;;;4.43;3.10;;;;;;;;;;5064932;28;20040;-66
2023/03/06 12:49:12;;;;;;;4.25;3.00;;;;;;;;;;5035398;28;20198;-68
2023/03/06 12:51:38;;;;;;;5.53;3.28;;;;;;;;;;5041428;28;20044;-66
2023/03/06 12:54:04;;;;;;;4.40;3.10;;;;;;;;;;5054984;28;20705;-67
2023/03/06 12:56:29;;;;;;;3.92;2.95;;;;;;;;;;5041270;28;20500;-67
2023/03/06 12:58:55;;;;;;;5.30;3.38;;;;;;;;;;5056825;28;20430;-66
2023/03/06 13:01:32;;;;;;;3.75;2.95;;;;;;;;;;5058399;28;20033;-64
2023/03/06 13:03:58;;;;;;;3.78;2.80;;;;;;;;;;5056547;28;20495;-66
2023/03/06 13:06:26;;;;;;;4.13;3.07;;;;;;;;;;5059742;28;20127;-66
2023/03/06 13:08:57;;;;;;;4.15;2.90;;;;;;;;;;5066327;28;20099;-67
2023/03/06 13:11:28;;;;;;;3.83;2.92;;;;;;;;;;5055187;28;20142;-66
2023/03/06 13:13:54;;;;;;;4.68;3.22;;;;;;;;;;5054149;28;20137;-67
2023/03/06 13:16:25;;;;;;;3.73;3.00;;;;;;;;;;5048117;28;20718;-64
2023/03/06 13:18:52;;;;;;;4.75;3.25;;;;;;;;;;5063821;28;20331;-65
2023/03/06 13:21:44;;;;;;;4.57;3.10;;;;;;;;;;5024917;28;20851;-68
2023/03/06 13:24:15;;;;;;;4.30;3.13;;;;;;;;;;5052284;28;20045;-67
2023/03/06 13:26:40;;;;;;;4.10;2.88;;;;;;;;;;5049810;28;20031;-65
2023/03/06 13:29:25;;;;;;;3.77;2.90;;;;;;;;;;5062755;28;20123;-67
2023/03/06 13:31:50;;;;;;;4.82;3.45;;;;;;;;;;5065755;28;20044;-65
2023/03/06 13:34:31;;;;;;;5.30;3.03;;;;;;;;;;5063845;28;20343;-66
2023/03/06 13:37:15;;;;;;;5.03;3.35;;;;;;;;;;5043826;28;20075;-67
2023/03/06 13:40:03;;;;;;;4.32;3.00;;;;;;;;;;5060501;28;20037;-66
2023/03/06 13:42:35;;;;;;;4.53;3.10;;;;;;;;;;5051022;28;20041;-65
2023/03/06 13:45:07;;;;;;;3.78;2.90;;;;;;;;;;5041409;28;20040;-66
2023/03/06 13:47:40;;;;;;;3.70;2.80;;;;;;;;;;5060918;28;20155;-68
2023/03/06 13:50:21;;;;;;;4.10;2.95;;;;;;;;;;5060591;28;20076;-64
2023/03/06 13:52:52;;;;;;;4.50;2.70;;;;;;;;;;5060811;28;20119;-66
2023/03/06 13:55:21;;;;;;;3.42;2.97;;;;;;;;;;5046369;28;20394;-67
2023/03/06 13:58:16;;;;;;;3.87;2.87;;;;;;;;;;5045425;28;20044;-70
2023/03/06 14:00:44;;;;;;;4.30;3.08;;;;;;;;;;5050823;28;20274;-70
2023/03/06 14:03:09;;;;;;;4.55;3.20;;;;;;;;;;5062493;28;20108;-70
2023/03/06 14:05:47;;;;;;;3.63;3.00;;;;;;;;;;5045176;28;21276;-66
2023/03/06 14:08:20;;;;;;;3.55;3.15;;;;;;;;;;5046351;28;20548;-70
2023/03/06 14:10:45;;;;;;;4.60;3.50;;;;;;;;;;5062846;28;20688;-69
2023/03/06 14:13:15;;;;;;;3.90;2.78;;;;;;;;;;5064944;28;20036;-68
2023/03/06 14:15:41;;;;;;;4.25;3.30;;;;;;;;;;5062871;28;20037;-67
2023/03/06 14:18:25;;;;;;;4.25;3.10;;;;;;;;;;5063069;28;20113;-68
2023/03/06 14:21:01;;;;;;;4.13;2.90;;;;;;;;;;5014534;28;20428;-67
2023/03/06 14:23:27;;;;;;;3.80;3.03;;;;;;;;;;5055484;28;20086;-64
2023/03/06 14:25:57;;;;;;;3.42;2.72;;;;;;;;;;5038836;28;20043;-68
2023/03/06 14:28:23;;;;;;;3.95;2.67;;;;;;;;;;5026624;28;20120;-70
2023/03/06 14:30:51;;;;;;;4.38;2.80;;;;;;;;;;5043789;28;20059;-65
2023/03/06 14:33:22;;;;;;;4.28;2.92;;;;;;;;;;5054857;28;20124;-62
2023/03/06 14:35:49;;;;;;;3.60;2.75;;;;;;;;;;5052532;28;20060;-70
2023/03/06 14:38:15;;;;;;;3.75;2.90;;;;;;;;;;5044179;28;20089;-68
2023/03/06 14:40:41;;;;;;;4.78;3.10;;;;;;;;;;5041508;28;21013;-71
2023/03/06 14:43:10;;;;;;;3.25;2.92;;;;;;;;;;5055856;28;20072;-70
2023/03/06 14:45:35;;;;;;;4.03;2.90;;;;;;;;;;5053656;28;20106;-67
2023/03/06 14:48:00;;;;;;;4.37;2.77;;;;;;;;;;5060091;28;20351;-63